sensor_id;sensor_type;location;lat;lon;timestamp;temperature;humidity
2409;DHT22;8463;48.094;7.970;2023-02-11T00:01:28;0.00;41.20
2409;DHT22;8463;48.094;7.970;2023-02-11T00:03:54;0.10;41.10
2409;DHT22;8463;48.094;7.970;2023-02-11T00:06:21;0.10;40.50
2409;DHT22;8463;48.094;7.970;2023-02-11T00:08:47;0.00;40.30
2409;DHT22;8463;48.094;7.970;2023-02-11T00:11:14;0.00;40.10
2409;DHT22;8463;48.094;7.970;2023-02-11T00:13:41;0.00;40.70
2409;DHT22;8463;48.094;7.970;2023-02-11T00:16:09;-0.10;41.20
2409;DHT22;8463;48.094;7.970;2023-02-11T00:18:35;-0.10;41.10
2409;DHT22;8463;48.094;7.970;2023-02-11T00:21:08;-0.10;41.40
2409;DHT22;8463;48.094;7.970;2023-02-11T00:23:35;-0.20;41.20
2409;DHT22;8463;48.094;7.970;2023-02-11T00:26:00;-0.20;41.40
2409;DHT22;8463;48.094;7.970;2023-02-11T00:28:26;-0.10;41.60
2409;DHT22;8463;48.094;7.970;2023-02-11T00:30:55;-0.10;41.30
2409;DHT22;8463;48.094;7.970;2023-02-11T00:33:20;-0.20;41.60
2409;DHT22;8463;48.094;7.970;2023-02-11T00:35:46;-0.20;42.30
2409;DHT22;8463;48.094;7.970;2023-02-11T00:38:12;-0.20;42.80
2409;DHT22;8463;48.094;7.970;2023-02-11T00:40:37;-0.20;43.50
2409;DHT22;8463;48.094;7.970;2023-02-11T00:43:03;-0.20;43.50
2409;DHT22;8463;48.094;7.970;2023-02-11T00:45:29;-0.30;43.40
2409;DHT22;8463;48.094;7.970;2023-02-11T00:47:55;-0.20;43.50
2409;DHT22;8463;48.094;7.970;2023-02-11T00:50:23;-0.30;43.40
2409;DHT22;8463;48.094;7.970;2023-02-11T00:52:49;-0.30;43.50
2409;DHT22;8463;48.094;7.970;2023-02-11T00:55:15;-0.30;43.50
2409;DHT22;8463;48.094;7.970;2023-02-11T00:57:41;-0.30;43.40
2409;DHT22;8463;48.094;7.970;2023-02-11T01:00:09;-0.30;43.40
2409;DHT22;8463;48.094;7.970;2023-02-11T01:02:35;-0.30;43.40
2409;DHT22;8463;48.094;7.970;2023-02-11T01:05:01;-0.30;42.50
2409;DHT22;8463;48.094;7.970;2023-02-11T01:07:27;-0.30;42.50
2409;DHT22;8463;48.094;7.970;2023-02-11T01:09:53;-0.30;42.10
2409;DHT22;8463;48.094;7.970;2023-02-11T01:12:19;-0.40;42.20
2409;DHT22;8463;48.094;7.970;2023-02-11T01:14:45;-0.40;42.70
2409;DHT22;8463;48.094;7.970;2023-02-11T01:17:10;-0.40;43.30
2409;DHT22;8463;48.094;7.970;2023-02-11T01:19:36;-0.40;43.30
2409;DHT22;8463;48.094;7.970;2023-02-11T01:22:02;-0.40;43.40
2409;DHT22;8463;48.094;7.970;2023-02-11T01:24:28;-0.40;43.30
2409;DHT22;8463;48.094;7.970;2023-02-11T01:26:54;-0.30;43.50
2409;DHT22;8463;48.094;7.970;2023-02-11T01:29:23;-0.40;43.40
2409;DHT22;8463;48.094;7.970;2023-02-11T01:31:48;-0.40;43.40
2409;DHT22;8463;48.094;7.970;2023-02-11T01:34:14;-0.50;43.20
2409;DHT22;8463;48.094;7.970;2023-02-11T01:36:40;-0.60;43.10
2409;DHT22;8463;48.094;7.970;2023-02-11T01:39:07;-0.70;43.80
2409;DHT22;8463;48.094;7.970;2023-02-11T01:41:35;-0.70;44.10
2409;DHT22;8463;48.094;7.970;2023-02-11T01:44:24;-0.80;44.80
2409;DHT22;8463;48.094;7.970;2023-02-11T01:46:50;-0.90;46.10
2409;DHT22;8463;48.094;7.970;2023-02-11T01:49:32;-0.90;46.10
2409;DHT22;8463;48.094;7.970;2023-02-11T01:52:08;-0.90;46.80
2409;DHT22;8463;48.094;7.970;2023-02-11T01:54:44;-0.90;46.90
2409;DHT22;8463;48.094;7.970;2023-02-11T01:57:31;-0.90;46.90
2409;DHT22;8463;48.094;7.970;2023-02-11T02:00:12;-0.80;46.40
2409;DHT22;8463;48.094;7.970;2023-02-11T02:08:22;-0.80;44.60
2409;DHT22;8463;48.094;7.970;2023-02-11T02:10:51;-0.80;45.00
2409;DHT22;8463;48.094;7.970;2023-02-11T02:13:23;-0.80;44.40
2409;DHT22;8463;48.094;7.970;2023-02-11T02:15:54;-0.70;44.50
2409;DHT22;8463;48.094;7.970;2023-02-11T02:24:37;-0.60;43.20
2409;DHT22;8463;48.094;7.970;2023-02-11T02:38:32;-0.60;43.10
2409;DHT22;8463;48.094;7.970;2023-02-11T02:41:09;-0.60;42.40
2409;DHT22;8463;48.094;7.970;2023-02-11T02:43:41;-0.80;43.00
2409;DHT22;8463;48.094;7.970;2023-02-11T02:46:17;-0.80;43.00
2409;DHT22;8463;48.094;7.970;2023-02-11T02:48:43;-0.90;42.90
2409;DHT22;8463;48.094;7.970;2023-02-11T02:56:43;-0.90;44.50
2409;DHT22;8463;48.094;7.970;2023-02-11T03:02:28;-0.80;44.00
2409;DHT22;8463;48.094;7.970;2023-02-11T03:05:10;-0.80;43.00
2409;DHT22;8463;48.094;7.970;2023-02-11T03:10:37;-0.80;43.00
2409;DHT22;8463;48.094;7.970;2023-02-11T03:13:05;-0.80;43.00
2409;DHT22;8463;48.094;7.970;2023-02-11T03:15:35;-0.80;43.00
2409;DHT22;8463;48.094;7.970;2023-02-11T03:18:02;-0.80;43.00
2409;DHT22;8463;48.094;7.970;2023-02-11T03:20:32;-1.00;42.80
2409;DHT22;8463;48.094;7.970;2023-02-11T03:23:25;-1.00;43.70
2409;DHT22;8463;48.094;7.970;2023-02-11T03:26:20;-1.10;44.40
2409;DHT22;8463;48.094;7.970;2023-02-11T03:36:52;-1.10;46.00
2409;DHT22;8463;48.094;7.970;2023-02-11T03:39:35;-1.20;44.70
2409;DHT22;8463;48.094;7.970;2023-02-11T03:42:03;-1.10;45.10
2409;DHT22;8463;48.094;7.970;2023-02-11T03:44:35;-1.10;45.30
2409;DHT22;8463;48.094;7.970;2023-02-11T03:47:03;-1.10;44.90
2409;DHT22;8463;48.094;7.970;2023-02-11T03:49:31;-1.00;44.80
2409;DHT22;8463;48.094;7.970;2023-02-11T03:52:00;-1.00;44.30
2409;DHT22;8463;48.094;7.970;2023-02-11T03:54:29;-1.00;44.30
2409;DHT22;8463;48.094;7.970;2023-02-11T03:56:57;-1.10;42.70
2409;DHT22;8463;48.094;7.970;2023-02-11T03:59:24;-1.20;44.50
2409;DHT22;8463;48.094;7.970;2023-02-11T04:01:49;-1.20;44.40
2409;DHT22;8463;48.094;7.970;2023-02-11T04:04:15;-1.20;43.80
2409;DHT22;8463;48.094;7.970;2023-02-11T04:06:41;-1.30;45.10
2409;DHT22;8463;48.094;7.970;2023-02-11T04:09:08;-1.30;46.00
2409;DHT22;8463;48.094;7.970;2023-02-11T04:11:33;-1.30;46.00
2409;DHT22;8463;48.094;7.970;2023-02-11T04:13:59;-1.30;45.30
2409;DHT22;8463;48.094;7.970;2023-02-11T04:16:25;-1.30;46.60
2409;DHT22;8463;48.094;7.970;2023-02-11T04:18:50;-1.30;46.30
2409;DHT22;8463;48.094;7.970;2023-02-11T04:21:16;-1.30;46.20
2409;DHT22;8463;48.094;7.970;2023-02-11T04:23:41;-1.30;46.10
2409;DHT22;8463;48.094;7.970;2023-02-11T04:26:07;-1.20;46.60
2409;DHT22;8463;48.094;7.970;2023-02-11T04:28:33;-1.20;46.70
2409;DHT22;8463;48.094;7.970;2023-02-11T04:30:59;-1.10;45.80
2409;DHT22;8463;48.094;7.970;2023-02-11T04:33:24;-1.10;45.90
2409;DHT22;8463;48.094;7.970;2023-02-11T04:35:50;-1.20;45.90
2409;DHT22;8463;48.094;7.970;2023-02-11T04:38:16;-1.20;45.60
2409;DHT22;8463;48.094;7.970;2023-02-11T04:40:41;-1.20;46.20
2409;DHT22;8463;48.094;7.970;2023-02-11T04:43:09;-1.10;45.60
2409;DHT22;8463;48.094;7.970;2023-02-11T04:45:35;-1.20;45.00
2409;DHT22;8463;48.094;7.970;2023-02-11T04:48:02;-1.20;45.50
2409;DHT22;8463;48.094;7.970;2023-02-11T04:50:28;-1.20;45.80
2409;DHT22;8463;48.094;7.970;2023-02-11T04:52:54;-1.20;45.50
2409;DHT22;8463;48.094;7.970;2023-02-11T04:55:19;-1.20;44.30
2409;DHT22;8463;48.094;7.970;2023-02-11T04:57:45;-1.20;45.10
2409;DHT22;8463;48.094;7.970;2023-02-11T05:00:11;-1.10;45.00
2409;DHT22;8463;48.094;7.970;2023-02-11T05:02:37;-1.10;44.00
2409;DHT22;8463;48.094;7.970;2023-02-11T05:05:02;-1.10;43.50
2409;DHT22;8463;48.094;7.970;2023-02-11T05:07:28;-1.20;45.20
2409;DHT22;8463;48.094;7.970;2023-02-11T05:09:54;-1.30;45.30
2409;DHT22;8463;48.094;7.970;2023-02-11T05:12:19;-1.30;45.40
2409;DHT22;8463;48.094;7.970;2023-02-11T05:14:46;-1.40;45.80
2409;DHT22;8463;48.094;7.970;2023-02-11T05:17:11;-1.40;45.80
2409;DHT22;8463;48.094;7.970;2023-02-11T05:19:37;-1.40;45.80
2409;DHT22;8463;48.094;7.970;2023-02-11T05:22:03;-1.40;45.30
2409;DHT22;8463;48.094;7.970;2023-02-11T05:24:30;-1.30;45.70
2409;DHT22;8463;48.094;7.970;2023-02-11T05:26:56;-1.30;46.00
2409;DHT22;8463;48.094;7.970;2023-02-11T05:29:22;-1.20;46.40
2409;DHT22;8463;48.094;7.970;2023-02-11T05:31:50;-1.20;44.80
2409;DHT22;8463;48.094;7.970;2023-02-11T05:34:15;-1.20;44.30
2409;DHT22;8463;48.094;7.970;2023-02-11T05:36:41;-1.20;43.30
2409;DHT22;8463;48.094;7.970;2023-02-11T05:39:06;-1.30;43.80
2409;DHT22;8463;48.094;7.970;2023-02-11T05:41:32;-1.20;44.70
2409;DHT22;8463;48.094;7.970;2023-02-11T05:43:58;-1.30;44.10
2409;DHT22;8463;48.094;7.970;2023-02-11T05:46:23;-1.30;43.90
2409;DHT22;8463;48.094;7.970;2023-02-11T05:48:49;-1.30;44.30
2409;DHT22;8463;48.094;7.970;2023-02-11T05:51:14;-1.20;44.50
2409;DHT22;8463;48.094;7.970;2023-02-11T05:53:40;-1.20;43.40
2409;DHT22;8463;48.094;7.970;2023-02-11T05:56:06;-1.20;42.90
2409;DHT22;8463;48.094;7.970;2023-02-11T05:58:32;-1.20;42.90
2409;DHT22;8463;48.094;7.970;2023-02-11T06:00:57;-1.20;43.30
2409;DHT22;8463;48.094;7.970;2023-02-11T06:03:23;-1.20;43.50
2409;DHT22;8463;48.094;7.970;2023-02-11T06:05:48;-1.20;44.10
2409;DHT22;8463;48.094;7.970;2023-02-11T06:08:14;-1.20;44.20
2409;DHT22;8463;48.094;7.970;2023-02-11T06:10:40;-1.20;44.10
2409;DHT22;8463;48.094;7.970;2023-02-11T06:13:09;-1.20;44.30
2409;DHT22;8463;48.094;7.970;2023-02-11T06:15:34;-1.30;44.40
2409;DHT22;8463;48.094;7.970;2023-02-11T06:18:00;-1.20;44.70
2409;DHT22;8463;48.094;7.970;2023-02-11T06:20:26;-1.20;44.30
2409;DHT22;8463;48.094;7.970;2023-02-11T06:22:51;-1.20;44.00
2409;DHT22;8463;48.094;7.970;2023-02-11T06:25:19;-1.20;43.10
2409;DHT22;8463;48.094;7.970;2023-02-11T06:27:45;-1.20;43.20
2409;DHT22;8463;48.094;7.970;2023-02-11T06:30:12;-1.20;43.40
2409;DHT22;8463;48.094;7.970;2023-02-11T06:32:38;-1.20;43.10
2409;DHT22;8463;48.094;7.970;2023-02-11T06:35:06;-1.20;42.60
2409;DHT22;8463;48.094;7.970;2023-02-11T06:37:33;-1.30;43.30
2409;DHT22;8463;48.094;7.970;2023-02-11T06:39:59;-1.30;43.40
2409;DHT22;8463;48.094;7.970;2023-02-11T06:42:27;-1.30;43.70
2409;DHT22;8463;48.094;7.970;2023-02-11T06:44:53;-1.30;44.20
2409;DHT22;8463;48.094;7.970;2023-02-11T06:47:18;-1.20;43.70
2409;DHT22;8463;48.094;7.970;2023-02-11T06:49:44;-1.20;43.20
2409;DHT22;8463;48.094;7.970;2023-02-11T06:52:10;-1.20;43.70
2409;DHT22;8463;48.094;7.970;2023-02-11T06:54:36;-1.20;43.80
2409;DHT22;8463;48.094;7.970;2023-02-11T06:57:03;-1.20;43.70
2409;DHT22;8463;48.094;7.970;2023-02-11T06:59:29;-1.20;43.50
2409;DHT22;8463;48.094;7.970;2023-02-11T07:01:55;-1.10;43.60
2409;DHT22;8463;48.094;7.970;2023-02-11T07:04:20;-1.10;43.40
2409;DHT22;8463;48.094;7.970;2023-02-11T07:06:47;-1.10;44.40
2409;DHT22;8463;48.094;7.970;2023-02-11T07:09:12;0.10;68.20
2409;DHT22;8463;48.094;7.970;2023-02-11T07:11:38;0.20;66.40
2409;DHT22;8463;48.094;7.970;2023-02-11T07:14:06;0.10;65.40
2409;DHT22;8463;48.094;7.970;2023-02-11T07:16:35;-0.10;60.60
2409;DHT22;8463;48.094;7.970;2023-02-11T07:19:01;-0.30;56.20
2409;DHT22;8463;48.094;7.970;2023-02-11T07:21:26;-0.50;50.20
2409;DHT22;8463;48.094;7.970;2023-02-11T07:23:52;-0.50;49.70
2409;DHT22;8463;48.094;7.970;2023-02-11T07:26:21;-0.60;46.10
2409;DHT22;8463;48.094;7.970;2023-02-11T07:28:52;-0.60;46.70
2409;DHT22;8463;48.094;7.970;2023-02-11T07:31:21;-0.60;46.90
2409;DHT22;8463;48.094;7.970;2023-02-11T07:33:47;-0.50;46.30
2409;DHT22;8463;48.094;7.970;2023-02-11T07:36:14;-0.40;45.50
2409;DHT22;8463;48.094;7.970;2023-02-11T07:38:41;-0.30;45.80
2409;DHT22;8463;48.094;7.970;2023-02-11T07:41:12;-0.30;45.20
2409;DHT22;8463;48.094;7.970;2023-02-11T07:43:38;-0.20;44.70
2409;DHT22;8463;48.094;7.970;2023-02-11T07:46:10;-0.20;43.50
2409;DHT22;8463;48.094;7.970;2023-02-11T07:48:36;-0.20;44.40
2409;DHT22;8463;48.094;7.970;2023-02-11T07:51:16;-0.20;45.50
2409;DHT22;8463;48.094;7.970;2023-02-11T07:53:43;-0.10;45.80
2409;DHT22;8463;48.094;7.970;2023-02-11T07:56:10;0.00;45.60
2409;DHT22;8463;48.094;7.970;2023-02-11T07:58:36;0.00;45.40
2409;DHT22;8463;48.094;7.970;2023-02-11T08:01:04;0.10;45.70
2409;DHT22;8463;48.094;7.970;2023-02-11T08:03:31;0.20;45.00
2409;DHT22;8463;48.094;7.970;2023-02-11T08:05:57;0.20;44.70
2409;DHT22;8463;48.094;7.970;2023-02-11T08:08:25;0.20;44.50
2409;DHT22;8463;48.094;7.970;2023-02-11T08:10:52;0.20;43.90
2409;DHT22;8463;48.094;7.970;2023-02-11T08:13:17;0.30;44.00
2409;DHT22;8463;48.094;7.970;2023-02-11T08:15:43;0.30;44.00
2409;DHT22;8463;48.094;7.970;2023-02-11T08:18:08;0.40;44.10
2409;DHT22;8463;48.094;7.970;2023-02-11T08:20:34;0.60;47.30
2409;DHT22;8463;48.094;7.970;2023-02-11T08:23:00;0.80;46.50
2409;DHT22;8463;48.094;7.970;2023-02-11T08:25:27;1.00;44.60
2409;DHT22;8463;48.094;7.970;2023-02-11T08:27:52;1.00;41.20
2409;DHT22;8463;48.094;7.970;2023-02-11T08:30:18;1.10;41.10
2409;DHT22;8463;48.094;7.970;2023-02-11T08:32:44;1.20;40.90
2409;DHT22;8463;48.094;7.970;2023-02-11T08:35:09;1.40;40.80
2409;DHT22;8463;48.094;7.970;2023-02-11T08:37:36;1.50;40.20
2409;DHT22;8463;48.094;7.970;2023-02-11T08:40:02;1.70;39.00
2409;DHT22;8463;48.094;7.970;2023-02-11T08:42:28;1.90;38.40
2409;DHT22;8463;48.094;7.970;2023-02-11T08:44:54;2.10;37.70
2409;DHT22;8463;48.094;7.970;2023-02-11T08:47:19;2.20;36.80
2409;DHT22;8463;48.094;7.970;2023-02-11T08:49:45;2.40;36.40
2409;DHT22;8463;48.094;7.970;2023-02-11T08:52:11;2.40;35.70
2409;DHT22;8463;48.094;7.970;2023-02-11T08:54:36;2.50;34.40
2409;DHT22;8463;48.094;7.970;2023-02-11T08:57:02;2.60;34.20
2409;DHT22;8463;48.094;7.970;2023-02-11T08:59:28;2.70;33.40
2409;DHT22;8463;48.094;7.970;2023-02-11T09:01:54;2.80;33.00
2409;DHT22;8463;48.094;7.970;2023-02-11T09:04:20;2.90;32.00
2409;DHT22;8463;48.094;7.970;2023-02-11T09:06:46;3.00;31.70
2409;DHT22;8463;48.094;7.970;2023-02-11T09:09:13;3.30;30.00
2409;DHT22;8463;48.094;7.970;2023-02-11T09:11:40;3.50;29.60
2409;DHT22;8463;48.094;7.970;2023-02-11T09:14:06;3.80;27.30
2409;DHT22;8463;48.094;7.970;2023-02-11T09:16:34;3.90;26.90
2409;DHT22;8463;48.094;7.970;2023-02-11T09:19:02;4.10;26.50
2409;DHT22;8463;48.094;7.970;2023-02-11T09:21:28;4.30;25.30
2409;DHT22;8463;48.094;7.970;2023-02-11T09:23:55;4.20;22.00
2409;DHT22;8463;48.094;7.970;2023-02-11T09:26:29;3.90;22.20
2409;DHT22;8463;48.094;7.970;2023-02-11T09:28:56;3.70;22.70
2409;DHT22;8463;48.094;7.970;2023-02-11T09:31:27;3.80;23.90
2409;DHT22;8463;48.094;7.970;2023-02-11T09:33:55;3.80;21.30
2409;DHT22;8463;48.094;7.970;2023-02-11T09:36:24;3.80;20.70
2409;DHT22;8463;48.094;7.970;2023-02-11T09:38:50;3.70;20.30
2409;DHT22;8463;48.094;7.970;2023-02-11T09:43:53;3.80;22.10
2409;DHT22;8463;48.094;7.970;2023-02-11T09:46:21;4.00;22.20
2409;DHT22;8463;48.094;7.970;2023-02-11T09:48:49;4.20;20.70
2409;DHT22;8463;48.094;7.970;2023-02-11T09:51:36;4.20;18.70
2409;DHT22;8463;48.094;7.970;2023-02-11T09:54:11;4.40;18.40
2409;DHT22;8463;48.094;7.970;2023-02-11T09:56:37;4.40;15.00
2409;DHT22;8463;48.094;7.970;2023-02-11T09:59:03;4.50;15.10
2409;DHT22;8463;48.094;7.970;2023-02-11T10:01:40;4.80;14.70
2409;DHT22;8463;48.094;7.970;2023-02-11T10:06:56;5.10;11.50
2409;DHT22;8463;48.094;7.970;2023-02-11T10:25:52;6.20;3.90
2409;DHT22;8463;48.094;7.970;2023-02-11T10:28:35;6.30;1.00
2409;DHT22;8463;48.094;7.970;2023-02-11T10:31:14;6.60;1.50
2409;DHT22;8463;48.094;7.970;2023-02-11T10:33:45;6.40;1.00
2409;DHT22;8463;48.094;7.970;2023-02-11T10:36:13;6.40;2.70
2409;DHT22;8463;48.094;7.970;2023-02-11T10:38:39;6.50;1.00
2409;DHT22;8463;48.094;7.970;2023-02-11T10:41:05;6.50;1.00
2409;DHT22;8463;48.094;7.970;2023-02-11T10:43:32;6.60;1.00
2409;DHT22;8463;48.094;7.970;2023-02-11T10:45:59;6.60;1.00
2409;DHT22;8463;48.094;7.970;2023-02-11T10:48:50;6.60;1.00
2409;DHT22;8463;48.094;7.970;2023-02-11T10:51:26;6.60;1.00
2409;DHT22;8463;48.094;7.970;2023-02-11T10:56:24;6.80;1.00
2409;DHT22;8463;48.094;7.970;2023-02-11T11:01:35;6.80;1.00
2409;DHT22;8463;48.094;7.970;2023-02-11T11:04:01;6.90;1.10
2409;DHT22;8463;48.094;7.970;2023-02-11T11:06:29;7.00;1.00
2409;DHT22;8463;48.094;7.970;2023-02-11T11:08:56;7.10;1.00
2409;DHT22;8463;48.094;7.970;2023-02-11T11:11:23;7.40;1.00
2409;DHT22;8463;48.094;7.970;2023-02-11T11:16:37;7.60;1.00
2409;DHT22;8463;48.094;7.970;2023-02-11T11:21:46;7.40;1.00
2409;DHT22;8463;48.094;7.970;2023-02-11T11:27:00;7.40;1.00
2409;DHT22;8463;48.094;7.970;2023-02-11T11:29:36;7.30;1.80
2409;DHT22;8463;48.094;7.970;2023-02-11T11:32:26;7.40;2.00
2409;DHT22;8463;48.094;7.970;2023-02-11T11:34:54;7.40;1.50
2409;DHT22;8463;48.094;7.970;2023-02-11T11:37:29;7.60;1.50
2409;DHT22;8463;48.094;7.970;2023-02-11T11:40:03;7.80;1.00
2409;DHT22;8463;48.094;7.970;2023-02-11T11:42:34;7.90;1.00
2409;DHT22;8463;48.094;7.970;2023-02-11T11:45:17;7.90;1.00
2409;DHT22;8463;48.094;7.970;2023-02-11T11:48:11;8.00;1.00
2409;DHT22;8463;48.094;7.970;2023-02-11T11:50:52;7.80;1.00
2409;DHT22;8463;48.094;7.970;2023-02-11T11:56:19;7.60;1.00
2409;DHT22;8463;48.094;7.970;2023-02-11T11:58:47;7.80;1.00
2409;DHT22;8463;48.094;7.970;2023-02-11T12:12:30;8.60;1.00
2409;DHT22;8463;48.094;7.970;2023-02-11T12:43:28;9.30;1.00
2409;DHT22;8463;48.094;7.970;2023-02-11T12:52:15;9.30;1.00
2409;DHT22;8463;48.094;7.970;2023-02-11T12:54:59;9.40;1.00
2409;DHT22;8463;48.094;7.970;2023-02-11T12:57:34;9.50;1.00
2409;DHT22;8463;48.094;7.970;2023-02-11T13:00:22;9.60;1.00
2409;DHT22;8463;48.094;7.970;2023-02-11T13:05:52;9.70;1.00
2409;DHT22;8463;48.094;7.970;2023-02-11T13:10:54;10.40;1.00
2409;DHT22;8463;48.094;7.970;2023-02-11T13:30:32;9.90;1.00
2409;DHT22;8463;48.094;7.970;2023-02-11T13:35:34;10.00;1.00
2409;DHT22;8463;48.094;7.970;2023-02-11T13:38:11;9.70;1.00
2409;DHT22;8463;48.094;7.970;2023-02-11T13:40:42;9.60;1.00
2409;DHT22;8463;48.094;7.970;2023-02-11T13:43:23;9.80;1.00
2409;DHT22;8463;48.094;7.970;2023-02-11T13:45:57;9.90;1.00
2409;DHT22;8463;48.094;7.970;2023-02-11T13:48:47;10.20;1.00
2409;DHT22;8463;48.094;7.970;2023-02-11T13:51:16;10.40;1.00
2409;DHT22;8463;48.094;7.970;2023-02-11T13:53:50;10.40;1.00
2409;DHT22;8463;48.094;7.970;2023-02-11T13:56:40;10.40;1.00
2409;DHT22;8463;48.094;7.970;2023-02-11T14:04:38;10.30;1.00
2409;DHT22;8463;48.094;7.970;2023-02-11T14:11:01;10.50;1.00
2409;DHT22;8463;48.094;7.970;2023-02-11T14:13:34;10.50;1.00
2409;DHT22;8463;48.094;7.970;2023-02-11T14:16:10;10.50;1.00
2409;DHT22;8463;48.094;7.970;2023-02-11T14:23:48;10.50;1.00
2409;DHT22;8463;48.094;7.970;2023-02-11T14:28:58;10.20;1.00
2409;DHT22;8463;48.094;7.970;2023-02-11T14:31:34;10.30;1.00
2409;DHT22;8463;48.094;7.970;2023-02-11T14:42:36;10.10;1.00
2409;DHT22;8463;48.094;7.970;2023-02-11T14:45:05;10.30;1.00
2409;DHT22;8463;48.094;7.970;2023-02-11T14:50:53;10.10;1.00
2409;DHT22;8463;48.094;7.970;2023-02-11T14:53:24;10.20;1.00
2409;DHT22;8463;48.094;7.970;2023-02-11T14:55:52;10.00;1.00
2409;DHT22;8463;48.094;7.970;2023-02-11T14:58:21;9.70;1.00
2409;DHT22;8463;48.094;7.970;2023-02-11T15:01:01;9.50;1.00
2409;DHT22;8463;48.094;7.970;2023-02-11T15:08:29;9.10;1.00
2409;DHT22;8463;48.094;7.970;2023-02-11T15:10:56;9.00;1.00
2409;DHT22;8463;48.094;7.970;2023-02-11T15:13:24;9.00;1.00
2409;DHT22;8463;48.094;7.970;2023-02-11T15:16:04;8.80;1.00
2409;DHT22;8463;48.094;7.970;2023-02-11T15:18:38;8.70;2.30
2409;DHT22;8463;48.094;7.970;2023-02-11T15:21:05;8.70;2.30
2409;DHT22;8463;48.094;7.970;2023-02-11T15:23:32;8.60;2.20
2409;DHT22;8463;48.094;7.970;2023-02-11T15:25:58;8.30;3.90
2409;DHT22;8463;48.094;7.970;2023-02-11T15:28:34;8.10;4.70
2409;DHT22;8463;48.094;7.970;2023-02-11T15:31:10;7.90;5.50
2409;DHT22;8463;48.094;7.970;2023-02-11T15:33:38;8.00;4.60
2409;DHT22;8463;48.094;7.970;2023-02-11T15:36:08;7.90;5.50
2409;DHT22;8463;48.094;7.970;2023-02-11T15:38:34;8.00;5.90
2409;DHT22;8463;48.094;7.970;2023-02-11T15:41:02;7.90;6.90
2409;DHT22;8463;48.094;7.970;2023-02-11T15:43:46;7.70;8.70
2409;DHT22;8463;48.094;7.970;2023-02-11T15:46:17;7.80;9.60
2409;DHT22;8463;48.094;7.970;2023-02-11T15:48:47;8.10;24.60
2409;DHT22;8463;48.094;7.970;2023-02-11T15:51:27;8.00;9.20
2409;DHT22;8463;48.094;7.970;2023-02-11T15:53:59;7.80;9.60
2409;DHT22;8463;48.094;7.970;2023-02-11T15:58:55;7.10;14.00
2409;DHT22;8463;48.094;7.970;2023-02-11T16:01:33;7.00;15.40
2409;DHT22;8463;48.094;7.970;2023-02-11T16:03:59;6.70;16.60
2409;DHT22;8463;48.094;7.970;2023-02-11T16:06:37;6.50;17.20
2409;DHT22;8463;48.094;7.970;2023-02-11T16:09:22;6.40;18.80
2409;DHT22;8463;48.094;7.970;2023-02-11T16:16:57;6.60;18.00
2409;DHT22;8463;48.094;7.970;2023-02-11T16:19:25;6.40;19.50
2409;DHT22;8463;48.094;7.970;2023-02-11T16:21:53;6.40;19.80
2409;DHT22;8463;48.094;7.970;2023-02-11T16:27:02;6.40;20.60
2409;DHT22;8463;48.094;7.970;2023-02-11T16:29:34;6.20;21.70
2409;DHT22;8463;48.094;7.970;2023-02-11T16:32:13;6.20;22.10
2409;DHT22;8463;48.094;7.970;2023-02-11T16:34:39;6.30;21.60
2409;DHT22;8463;48.094;7.970;2023-02-11T16:37:05;6.30;21.70
2409;DHT22;8463;48.094;7.970;2023-02-11T16:39:31;6.40;21.50
2409;DHT22;8463;48.094;7.970;2023-02-11T16:41:57;6.40;22.20
2409;DHT22;8463;48.094;7.970;2023-02-11T16:44:23;6.50;24.00
2409;DHT22;8463;48.094;7.970;2023-02-11T16:46:50;6.40;22.00
2409;DHT22;8463;48.094;7.970;2023-02-11T16:49:25;6.40;21.40
2409;DHT22;8463;48.094;7.970;2023-02-11T16:51:55;6.40;21.80
2409;DHT22;8463;48.094;7.970;2023-02-11T16:54:22;6.30;21.60
2409;DHT22;8463;48.094;7.970;2023-02-11T16:56:48;6.20;21.90
2409;DHT22;8463;48.094;7.970;2023-02-11T16:59:14;6.10;22.30
2409;DHT22;8463;48.094;7.970;2023-02-11T17:01:41;6.00;22.60
2409;DHT22;8463;48.094;7.970;2023-02-11T17:06:40;5.80;23.90
2409;DHT22;8463;48.094;7.970;2023-02-11T17:09:06;5.80;23.50
2409;DHT22;8463;48.094;7.970;2023-02-11T17:11:32;5.80;23.50
2409;DHT22;8463;48.094;7.970;2023-02-11T17:13:58;5.70;24.20
2409;DHT22;8463;48.094;7.970;2023-02-11T17:16:24;5.60;23.40
2409;DHT22;8463;48.094;7.970;2023-02-11T17:18:51;5.50;24.40
2409;DHT22;8463;48.094;7.970;2023-02-11T17:21:17;5.40;25.10
2409;DHT22;8463;48.094;7.970;2023-02-11T17:23:42;5.30;25.40
2409;DHT22;8463;48.094;7.970;2023-02-11T17:26:10;5.30;25.60
2409;DHT22;8463;48.094;7.970;2023-02-11T17:28:35;5.20;25.90
2409;DHT22;8463;48.094;7.970;2023-02-11T17:31:06;5.10;25.90
2409;DHT22;8463;48.094;7.970;2023-02-11T17:33:31;5.10;25.90
2409;DHT22;8463;48.094;7.970;2023-02-11T17:35:57;5.00;26.50
2409;DHT22;8463;48.094;7.970;2023-02-11T17:38:23;5.00;26.60
2409;DHT22;8463;48.094;7.970;2023-02-11T17:40:59;5.00;26.40
2409;DHT22;8463;48.094;7.970;2023-02-11T17:43:26;4.80;27.30
2409;DHT22;8463;48.094;7.970;2023-02-11T17:45:52;4.80;27.60
2409;DHT22;8463;48.094;7.970;2023-02-11T17:48:20;4.80;27.80
2409;DHT22;8463;48.094;7.970;2023-02-11T17:50:45;4.70;27.80
2409;DHT22;8463;48.094;7.970;2023-02-11T17:53:11;4.70;28.70
2409;DHT22;8463;48.094;7.970;2023-02-11T17:55:38;4.70;28.40
2409;DHT22;8463;48.094;7.970;2023-02-11T17:58:04;4.70;28.30
2409;DHT22;8463;48.094;7.970;2023-02-11T18:00:30;4.70;28.70
2409;DHT22;8463;48.094;7.970;2023-02-11T18:02:56;4.70;28.30
2409;DHT22;8463;48.094;7.970;2023-02-11T18:05:35;4.60;28.60
2409;DHT22;8463;48.094;7.970;2023-02-11T18:08:02;4.50;29.80
2409;DHT22;8463;48.094;7.970;2023-02-11T18:10:28;4.50;29.60
2409;DHT22;8463;48.094;7.970;2023-02-11T18:12:54;4.50;29.80
2409;DHT22;8463;48.094;7.970;2023-02-11T18:15:22;4.50;29.80
2409;DHT22;8463;48.094;7.970;2023-02-11T18:17:48;4.50;29.80
2409;DHT22;8463;48.094;7.970;2023-02-11T18:20:14;4.50;29.50
2409;DHT22;8463;48.094;7.970;2023-02-11T18:22:40;4.40;29.80
2409;DHT22;8463;48.094;7.970;2023-02-11T18:25:07;4.40;29.80
2409;DHT22;8463;48.094;7.970;2023-02-11T18:27:36;4.40;29.80
2409;DHT22;8463;48.094;7.970;2023-02-11T18:30:02;4.40;29.80
2409;DHT22;8463;48.094;7.970;2023-02-11T18:32:28;4.30;29.70
2409;DHT22;8463;48.094;7.970;2023-02-11T18:34:53;4.30;29.70
2409;DHT22;8463;48.094;7.970;2023-02-11T18:37:19;4.20;30.40
2409;DHT22;8463;48.094;7.970;2023-02-11T18:39:45;4.10;31.20
2409;DHT22;8463;48.094;7.970;2023-02-11T18:42:10;4.00;32.10
2409;DHT22;8463;48.094;7.970;2023-02-11T18:44:36;3.90;32.80
2409;DHT22;8463;48.094;7.970;2023-02-11T18:47:01;3.90;33.30
2409;DHT22;8463;48.094;7.970;2023-02-11T18:49:27;3.80;32.80
2409;DHT22;8463;48.094;7.970;2023-02-11T18:51:55;3.80;32.50
2409;DHT22;8463;48.094;7.970;2023-02-11T18:54:23;3.80;33.20
2409;DHT22;8463;48.094;7.970;2023-02-11T18:56:49;3.70;33.20
2409;DHT22;8463;48.094;7.970;2023-02-11T18:59:15;3.70;34.00
2409;DHT22;8463;48.094;7.970;2023-02-11T19:01:41;3.60;34.20
2409;DHT22;8463;48.094;7.970;2023-02-11T19:04:11;3.50;35.20
2409;DHT22;8463;48.094;7.970;2023-02-11T19:06:37;3.40;36.10
2409;DHT22;8463;48.094;7.970;2023-02-11T19:09:09;3.30;37.30
2409;DHT22;8463;48.094;7.970;2023-02-11T19:11:38;3.30;37.70
2409;DHT22;8463;48.094;7.970;2023-02-11T19:14:29;3.20;37.70
2409;DHT22;8463;48.094;7.970;2023-02-11T19:17:01;3.20;38.20
2409;DHT22;8463;48.094;7.970;2023-02-11T19:19:29;3.10;38.20
2409;DHT22;8463;48.094;7.970;2023-02-11T19:21:56;3.20;38.40
2409;DHT22;8463;48.094;7.970;2023-02-11T19:24:22;3.10;38.20
2409;DHT22;8463;48.094;7.970;2023-02-11T19:26:50;3.10;38.40
2409;DHT22;8463;48.094;7.970;2023-02-11T19:29:16;3.10;38.60
2409;DHT22;8463;48.094;7.970;2023-02-11T19:31:42;3.10;38.50
2409;DHT22;8463;48.094;7.970;2023-02-11T19:34:10;3.20;38.70
2409;DHT22;8463;48.094;7.970;2023-02-11T19:36:36;3.10;38.40
2409;DHT22;8463;48.094;7.970;2023-02-11T19:39:03;3.10;39.00
2409;DHT22;8463;48.094;7.970;2023-02-11T19:41:29;3.00;39.90
2409;DHT22;8463;48.094;7.970;2023-02-11T19:43:55;3.00;40.50